Latest Weather Observations for Perisher Valley

IDN60901

Issued at 8:51 pm EDT Sunday 24 January 2021 (issued every 10 minutes, with the page automatically refreshed every 10 minutes)

About weather observations | Map of Canberra area stations | Latest observations for Canberra area | Other Formats
Station Details ID: 071075 Name: PERISHER VALLEY AWS Lat: -36.41 Lon: 148.41 Height: 1738.0 m
Data from the previous 72 hours. | See also: Recent months at Perisher Valley
Date/Time
EDT
Temp
°C
App
Temp
°C
Dew
Point
°C
Rel
Hum
%
Delta-T
°C
Wind Press
QNH
hPa
Press
MSL
hPa
Rain since
9am
mm
Dir  Spd
km/h
Gust
km/h
Spd
kts
Gust
kts
24/08:30pm 18.5 17.7 9.8 57 5.0 SW 4 9 2 5 - - 0.0
24/08:00pm 18.4 17.3 6.9 47 6.3 WSW 2 6 1 3 - - 0.0
24/07:30pm 19.9 17.8 5.9 40 7.6 WNW 6 9 3 5 - - 0.0
24/07:00pm 22.8 20.4 4.3 30 9.9 W 6 9 3 5 - - 0.0
24/06:30pm 23.5 21.4 4.0 28 10.4 SSW 4 7 2 4 - - 0.0
24/06:00pm 24.3 21.3 4.1 27 10.9 W 9 17 5 9 - - 0.0
24/05:30pm 23.7 21.6 4.1 28 10.5 W 4 9 2 5 - - 0.0
24/05:00pm 25.2 22.9 4.9 27 11.1 W 6 17 3 9 - - 0.0
24/04:30pm 24.5 22.1 5.3 29 10.6 NW 7 17 4 9 - - 0.0
24/04:00pm 25.2 22.5 5.4 28 11.0 NNW 9 28 5 15 - - 0.0
24/03:30pm 24.3 21.9 5.1 29 10.5 WNW 7 17 4 9 - - 0.0
24/03:00pm 24.8 21.2 5.1 28 10.8 W 13 24 7 13 - - 0.0
24/02:30pm 23.8 20.0 3.7 27 10.7 W 13 32 7 17 - - 0.0
24/02:00pm 23.0 17.4 1.4 24 11.0 W 20 35 11 19 - - 0.0
24/01:30pm 23.2 18.1 0.9 23 11.3 WSW 17 37 9 20 - - 0.0
24/01:00pm 23.2 18.0 2.7 26 10.7 W 19 44 10 24 - - 0.0
24/12:30pm 23.3 18.1 3.3 27 10.6 W 20 50 11 27 - - 0.0
24/12:00pm 22.6 16.7 3.7 29 10.0 W 24 50 13 27 - - 0.0
24/11:30am 22.2 17.4 2.8 28 10.1 W 17 35 9 19 - - 0.0
24/11:00am 21.6 15.0 2.3 28 9.9 WNW 26 44 14 24 - - 0.0
24/10:30am 20.7 13.7 2.0 29 9.5 WNW 28 44 15 24 - - 0.0
24/10:00am 20.4 15.1 3.2 32 8.9 WNW 20 39 11 21 - - 0.0
24/09:30am 19.9 14.7 3.6 34 8.5 W 20 37 11 20 - - 0.0
24/09:00am 19.1 14.4 3.3 35 8.1 WNW 17 28 9 15 - - 0.0
24/08:30am 19.1 16.1 4.1 37 7.8 WNW 9 26 5 14 - - 0.0
24/08:00am 18.8 16.0 3.4 36 7.9 NNE 7 15 4 8 - - 0.0
24/07:30am 17.8 15.2 4.0 40 7.1 ENE 7 11 4 6 - - 0.0
24/07:00am 16.1 13.6 3.9 44 6.2 NE 6 11 3 6 - - 0.0
24/06:30am 14.6 12.6 2.5 44 5.9 NNW 2 7 1 4 - - 0.0
24/06:00am 15.7 12.8 2.8 42 6.4 NNW 7 24 4 13 - - 0.0
24/05:30am 16.9 12.8 2.5 38 7.2 WNW 13 24 7 13 - - 0.0
24/05:00am 17.0 12.9 2.2 37 7.3 W 13 30 7 16 - - 0.0
24/04:30am 16.9 13.6 2.5 38 7.2 WNW 9 22 5 12 - - 0.0
24/04:00am 14.7 12.0 2.6 44 6.0 NNE 6 11 3 6 - - 0.0
24/03:30am 13.9 11.9 2.5 46 5.6 WNW 2 7 1 4 - - 0.0
24/03:00am 13.1 11.1 2.4 48 5.2 WNW 2 7 1 4 - - 0.0
24/02:30am 16.2 13.3 2.6 40 6.8 WSW 7 15 4 8 - - 0.0
24/02:00am 17.0 12.7 3.0 39 7.1 W 15 24 8 13 - - 0.0
24/01:30am 16.8 12.8 3.1 40 6.9 W 13 24 7 13 - - 0.0
24/01:00am 16.3 12.5 3.7 43 6.4 W 13 20 7 11 - - 0.0
24/12:30am 11.5 9.1 4.3 61 3.6 W 6 17 3 9 - - 0.0
24/12:00am 9.6 7.8 3.4 65 3.0 SSW 2 6 1 3 - - 0.0
 
Date/Time
EDT
Temp
°C
App
Temp
°C
Dew
Point
°C
Rel
Hum
%
Delta-T
°C
Wind Press
QNH
hPa
Press
MSL
hPa
Rain since
9am
mm
Dir  Spd
km/h
Gust
km/h
Spd
kts
Gust
kts
23/11:30pm 10.5 9.1 3.3 61 3.5 CALM 0 6 0 3 - - 0.0
23/11:00pm 10.7 8.5 3.5 61 3.5 SW 4 7 2 4 - - 0.0
23/10:30pm 10.7 8.1 3.3 60 3.6 SW 6 9 3 5 - - 0.0
23/10:00pm 12.1 9.9 3.3 55 4.3 W 4 6 2 3 - - 0.0
23/09:30pm 12.2 10.3 2.9 53 4.5 SSW 2 6 1 3 - - 0.0
23/09:00pm 13.4 11.1 2.9 49 5.2 WSW 4 6 2 3 - - 0.0
23/08:30pm 15.5 13.1 2.3 41 6.5 WNW 4 7 2 4 - - 0.0
23/08:00pm 18.0 15.2 1.9 34 8.0 W 6 17 3 9 - - 0.0
23/07:30pm 21.3 18.2 1.6 27 10.0 W 7 17 4 9 - - 0.0
23/07:00pm 21.9 18.5 1.6 26 10.3 WSW 9 20 5 11 - - 0.0
23/06:30pm 22.5 18.8 2.1 26 10.5 WNW 11 20 6 11 - - 0.0
23/06:00pm 22.6 19.2 1.6 25 10.7 W 9 22 5 12 - - 0.0
23/05:30pm 22.8 18.9 1.2 24 10.9 W 11 24 6 13 - - 0.0
23/05:00pm 23.0 19.2 1.9 25 10.8 WNW 11 28 6 15 - - 0.0
23/04:30pm 22.9 19.9 1.9 25 10.8 W 7 24 4 13 - - 0.0
23/04:00pm 22.5 19.1 2.1 26 10.5 W 9 22 5 12 - - 0.0
23/03:30pm 22.0 16.8 2.7 28 10.0 W 19 39 10 21 - - 0.0
23/03:00pm 21.6 16.5 2.8 29 9.7 W 19 35 10 19 - - 0.0
23/02:30pm 21.1 14.5 1.9 28 9.7 W 26 41 14 22 - - 0.0
23/02:00pm 20.4 13.6 0.8 27 9.7 WNW 26 44 14 24 - - 0.0
23/01:47pm 20.4 13.1 0.3 26 9.8 WNW 28 48 15 26 - - 0.0
23/01:30pm 20.9 14.4 0.2 25 10.2 W 24 50 13 27 - - 0.0
23/01:00pm 20.4 13.1 -2.6 21 10.7 WNW 26 44 14 24 - - 0.0
23/12:30pm 20.1 14.1 -1.7 23 10.3 W 20 44 11 24 - - 0.0
23/12:00pm 20.1 14.5 0.0 26 9.8 W 19 33 10 18 - - 0.0
23/11:30am 19.3 13.3 -1.7 24 9.8 WNW 20 37 11 20 - - 0.0
23/11:00am 19.3 13.0 -1.2 25 9.7 WNW 22 48 12 26 - - 0.0
23/10:30am 18.7 13.3 -1.7 25 9.5 WNW 17 33 9 18 - - 0.0
23/10:00am 18.2 12.8 -1.6 26 9.2 W 17 37 9 20 - - 0.0
23/09:30am 17.9 10.7 -2.4 25 9.3 WNW 26 39 14 21 - - 0.0
23/09:00am 18.0 12.1 -2.3 25 9.3 W 19 37 10 20 - - 0.0
23/08:30am 17.4 12.5 -3.4 24 9.3 W 13 26 7 14 - - 0.0
23/08:00am 17.1 11.8 -3.6 24 9.1 W 15 32 8 17 - - 0.0
23/07:30am 16.0 11.5 -3.5 26 8.5 W 11 24 6 13 - - 0.0
23/07:00am 14.9 9.9 -3.9 27 8.1 W 13 24 7 13 - - 0.0
23/06:30am 12.6 8.0 -4.5 30 7.1 W 11 20 6 11 - - 0.0
23/06:00am 12.3 8.1 -3.5 33 6.7 W 9 17 5 9 - - 0.0
23/05:30am 9.9 6.4 -3.0 40 5.4 W 6 9 3 5 - - 0.0
23/05:00am 12.1 8.0 -3.3 34 6.5 W 9 17 5 9 - - 0.0
23/04:30am 11.0 7.4 -2.4 39 5.7 WNW 7 17 4 9 - - 0.0
23/04:00am 9.6 7.0 -2.0 44 5.0 NW 2 9 1 5 - - 0.0
23/03:30am 13.0 9.3 -2.5 34 6.8 W 7 15 4 8 - - 0.0
23/03:00am 13.1 9.1 -2.0 35 6.7 W 9 15 5 8 - - 0.0
23/02:30am 10.3 6.8 -1.1 45 5.0 WNW 7 13 4 7 - - 0.0
23/02:00am 9.1 6.3 -0.2 52 4.1 WNW 4 7 2 4 - - 0.0
23/01:30am 7.8 5.1 0.1 58 3.4 WNW 4 6 2 3 - - 0.0
23/01:00am 6.7 4.3 -0.1 62 3.0 SSW 2 4 1 2 - - 0.0
23/12:30am 7.0 5.2 1.1 66 2.6 CALM 0 0 0 0 - - 0.0
23/12:00am 7.9 6.3 2.4 68 2.6 CALM 0 2 0 1 - - 0.0
 
Date/Time
EDT
Temp
°C
App
Temp
°C
Dew
Point
°C
Rel
Hum
%
Delta-T
°C
Wind Press
QNH
hPa
Press
MSL
hPa
Rain since
9am
mm
Dir  Spd
km/h
Gust
km/h
Spd
kts
Gust
kts
22/11:30pm 8.4 5.7 2.8 68 2.6 SW 6 7 3 4 - - 0.0
22/11:00pm 8.8 6.6 1.0 58 3.5 WSW 2 4 1 2 - - 0.0
22/10:30pm 9.3 6.6 0.2 53 4.1 SSW 4 6 2 3 - - 0.0
22/10:00pm 9.8 7.5 0.7 53 4.1 SW 2 6 1 3 - - 0.0
22/09:30pm 10.5 8.0 1.3 53 4.3 SSW 4 7 2 4 - - 0.0
22/09:00pm 11.8 9.2 1.2 48 5.0 W 4 7 2 4 - - 0.0
22/08:30pm 13.4 10.8 1.1 43 5.8 WNW 4 9 2 5 - - 0.0
22/08:00pm 16.9 13.8 0.1 32 8.0 WNW 6 11 3 6 - - 0.0
22/07:30pm 18.6 14.9 -0.2 28 9.0 W 9 22 5 12 - - 0.0
22/07:00pm 18.8 15.4 1.8 32 8.5 WNW 9 19 5 10 - - 0.0
22/06:30pm 19.1 15.0 2.5 33 8.4 WNW 13 24 7 13 - - 0.0
22/06:00pm 19.4 16.2 3.2 34 8.3 W 9 24 5 13 - - 0.0
22/05:30pm 19.0 15.8 3.2 35 8.1 W 9 20 5 11 - - 0.0
22/05:00pm 19.0 15.1 3.6 36 8.0 W 13 28 7 15 - - 0.0
22/04:30pm 18.3 15.3 5.8 44 6.7 WNW 11 20 6 11 - - 0.0
22/04:00pm 18.5 15.1 5.7 43 6.9 W 13 30 7 16 - - 0.0
22/03:30pm 19.2 16.0 6.7 44 6.9 WNW 13 32 7 17 - - 0.0
22/03:00pm 18.9 14.1 5.7 42 7.1 WNW 20 37 11 20 - - 0.0
22/02:30pm 18.9 15.2 6.1 43 6.9 WNW 15 28 8 15 - - 0.0
22/02:00pm 17.6 13.0 6.5 48 6.0 WNW 20 35 11 19 - - 0.0
22/01:30pm 17.3 13.7 6.8 50 5.7 WNW 15 37 8 20 - - 0.0
22/01:00pm 17.2 12.9 7.0 51 5.6 WNW 19 35 10 19 - - 0.0
22/12:30pm 17.9 13.1 7.3 50 5.8 WNW 22 37 12 20 - - 0.0
22/12:00pm 17.9 13.9 6.7 48 6.1 W 17 32 9 17 - - 0.0
22/11:30am 17.4 14.2 6.9 50 5.7 WNW 13 35 7 19 - - 0.0
22/11:00am 16.4 12.7 7.9 57 4.7 WNW 17 37 9 20 - - 0.0
22/10:30am 15.9 12.3 8.2 60 4.3 WNW 17 30 9 16 - - 0.0
22/10:00am 14.9 9.9 7.9 63 3.8 WNW 24 41 13 22 - - 0.0
22/09:30am 14.4 9.3 7.7 64 3.6 WNW 24 39 13 21 - - 0.0
22/09:00am 14.2 9.2 7.9 66 3.4 W 24 41 13 22 - - 0.0
22/08:30am 13.5 6.7 7.1 65 3.4 W 32 54 17 29 - - 0.0
22/08:00am 13.1 7.0 6.5 64 3.5 WNW 28 56 15 30 - - 0.0
22/07:30am 12.9 6.0 6.5 65 3.4 W 32 56 17 30 - - 0.0
22/07:11am 12.9 7.5 6.3 64 3.5 W 24 50 13 27 - - 0.0
22/07:10am 12.9 7.8 6.0 63 3.6 W 22 50 12 27 - - 0.0
22/07:00am 13.0 10.0 6.1 63 3.6 WNW 11 30 6 16 - - 0.0
22/06:30am 12.2 9.9 5.8 65 3.3 WNW 7 20 4 11 - - 0.0
22/06:00am 12.2 10.3 4.9 61 3.7 WNW 4 9 2 5 - - 0.0
22/05:30am 12.5 10.9 4.7 59 3.9 WNW 2 13 1 7 - - 0.0
22/05:00am 13.2 10.9 4.9 57 4.2 WNW 6 17 3 9 - - 0.0
22/04:30am 13.1 10.7 4.5 56 4.4 W 6 15 3 8 - - 0.0
22/04:00am 13.4 11.0 4.3 54 4.6 W 6 15 3 8 - - 0.0
22/03:30am 13.9 9.7 3.9 51 5.0 W 15 24 8 13 - - 0.0
22/03:00am 13.9 10.1 3.9 51 5.0 W 13 24 7 13 - - 0.0
22/02:30am 13.8 8.9 3.9 51 5.0 W 19 30 10 16 - - 0.0
22/02:00am 12.7 8.9 3.9 55 4.4 W 13 24 7 13 - - 0.0
22/01:30am 11.4 8.0 3.9 60 3.7 WSW 11 19 6 10 - - 0.0
22/01:00am 9.2 7.1 4.0 70 2.5 WNW 4 9 2 5 - - 0.0
22/12:30am 6.8 4.8 2.5 74 2.0 S 2 4 1 2 - - 0.0
22/12:00am 7.8 5.9 3.1 72 2.2 SW 2 6 1 3 - - 0.0
 
Date/Time
EDT
Temp
°C
App
Temp
°C
Dew
Point
°C
Rel
Hum
%
Delta-T
°C
Wind Press
QNH
hPa
Press
MSL
hPa
Rain since
9am
mm
Dir  Spd
km/h
Gust
km/h
Spd
kts
Gust
kts
21/11:30pm 8.7 6.8 2.9 67 2.7 S 2 6 1 3 - - 0.0
21/11:00pm 10.2 7.4 2.3 58 3.7 W 6 9 3 5 - - 0.0
21/10:30pm 13.9 10.4 3.7 50 5.1 WNW 11 17 6 9 - - 0.0
21/10:00pm 12.7 9.5 2.8 51 4.8 W 9 19 5 10 - - 0.0
21/09:30pm 13.3 10.2 3.4 51 4.9 WSW 9 13 5 7 - - 0.0
21/09:00pm 14.8 10.9 3.6 47 5.6 W 13 22 7 12 - - 0.0

Latest Capital City Observations: Canberra | Sydney | Melbourne | Brisbane | Adelaide | Perth | Hobart | Darwin

Other formats

Comma delimited format used in spreadsheet applications
http://www.bom.gov.au/fwo/IDN60903/IDN60903.94915.axf

JavaScript Object Notation format (JSON) in row-major order
http://www.bom.gov.au/fwo/IDN60903/IDN60903.94915.json

Data quality

Most of these data are generated automatically and are frequently updated. Quality checks on data are not normally performed. It is possible for incorrect values to appear. Refer to information at About Latest Weather Observations and please check the disclaimer before using these data.